Time;durP1;ratioP1;P1;durP2;ratioP2;P2;SDS_P1;SDS_P2;PMS_P1;PMS_P2;Temp;Humidity;BMP_temperature;BMP_pressure;BME280_temperature;BME280_humidity;BME280_pressure;Samples;Min_cycle;Max_cycle;Signal;HPM_P1;HPM_P2
2020/12/01 00:01:02;;;;;;;12.30;10.15;;;4.60;99.90;;;;;;5111159;28;20528;-67
2020/12/01 00:03:28;;;;;;;11.82;9.52;;;4.70;99.90;;;;;;5111151;28;20427;-67
2020/12/01 00:05:55;;;;;;;11.57;9.35;;;4.70;99.90;;;;;;5111063;28;20464;-66
2020/12/01 00:08:21;;;;;;;11.88;9.25;;;4.70;1.00;;;;;;5111279;28;20963;-64
2020/12/01 00:10:47;;;;;;;12.05;9.02;;;4.70;1.00;;;;;;5111684;28;20408;-66
2020/12/01 00:13:14;;;;;;;11.25;9.27;;;4.70;1.00;;;;;;5111061;28;20457;-66
2020/12/01 00:15:40;;;;;;;10.63;9.27;;;4.70;1.00;;;;;;5110951;28;20876;-67
2020/12/01 00:18:06;;;;;;;10.50;9.10;;;4.60;1.00;;;;;;5111071;28;20477;-67
2020/12/01 00:20:32;;;;;;;9.82;8.13;;;4.60;1.00;;;;;;5110725;28;20426;-66
2020/12/01 00:22:59;;;;;;;10.43;9.23;;;4.70;94.20;;;;;;5110926;28;20433;-66
2020/12/01 00:25:26;;;;;;;11.57;9.35;;;4.60;58.50;;;;;;5113254;28;20412;-67
2020/12/01 00:27:52;;;;;;;10.18;8.55;;;4.60;1.00;;;;;;5114790;28;20414;-66
2020/12/01 00:30:22;;;;;;;9.75;8.20;;;4.60;1.00;;;;;;5114801;28;20412;-66
2020/12/01 00:32:49;;;;;;;9.00;7.90;;;4.60;99.90;;;;;;5114662;28;20524;-66
2020/12/01 00:35:18;;;;;;;10.38;8.20;;;4.70;1.00;;;;;;5114806;28;20416;-66
2020/12/01 00:37:44;;;;;;;11.40;9.07;;;4.60;1.00;;;;;;5114620;28;20408;-67
2020/12/01 00:40:11;;;;;;;9.55;8.05;;;4.70;1.00;;;;;;5114795;28;20941;-66
2020/12/01 00:42:37;;;;;;;9.70;7.90;;;4.70;1.00;;;;;;5114579;28;20396;-66
2020/12/01 00:45:05;;;;;;;9.35;8.10;;;4.70;1.00;;;;;;5116157;28;20477;-66
2020/12/01 00:47:32;;;;;;;7.78;6.90;;;4.70;99.90;;;;;;5116331;28;20400;-67
2020/12/01 00:49:58;;;;;;;9.75;7.65;;;4.70;99.90;;;;;;5114363;28;20405;-67
2020/12/01 00:52:24;;;;;;;8.60;7.40;;;4.70;99.90;;;;;;5114459;28;20409;-67
2020/12/01 00:54:50;;;;;;;8.70;7.75;;;4.70;99.90;;;;;;5114646;28;20404;-67
2020/12/01 00:57:16;;;;;;;10.75;8.18;;;4.60;99.90;;;;;;5114606;28;20412;-67
2020/12/01 00:59:42;;;;;;;8.70;7.60;;;4.60;99.90;;;;;;5114340;28;20420;-67
2020/12/01 01:02:09;;;;;;;9.60;7.97;;;4.70;1.00;;;;;;5114061;28;20404;-67
2020/12/01 01:04:36;;;;;;;9.43;7.70;;;4.60;1.00;;;;;;5115377;28;20799;-67
2020/12/01 01:07:02;;;;;;;8.40;7.40;;;4.70;1.00;;;;;;5114120;28;20457;-67
2020/12/01 01:09:28;;;;;;;8.88;7.90;;;4.70;1.00;;;;;;5114115;28;20396;-67
2020/12/01 01:11:54;;;;;;;11.47;8.27;;;4.60;99.90;;;;;;5113928;28;20876;-66
2020/12/01 01:14:20;;;;;;;10.23;7.97;;;4.60;1.00;;;;;;5113892;28;20404;-67
2020/12/01 01:16:46;;;;;;;10.82;8.43;;;4.60;1.00;;;;;;5113784;28;20430;-66
2020/12/01 01:19:14;;;;;;;9.20;8.27;;;4.60;1.80;;;;;;5113915;28;20473;-66
2020/12/01 01:21:42;;;;;;;10.07;8.25;;;4.70;99.90;;;;;;5114293;28;20465;-67
2020/12/01 01:24:09;;;;;;;10.90;9.00;;;4.70;99.90;;;;;;5113767;28;20409;-67
2020/12/01 01:26:35;;;;;;;10.85;9.50;;;4.80;5.00;;;;;;5113899;28;20405;-66
2020/12/01 01:29:01;;;;;;;11.52;9.40;;;4.70;1.00;;;;;;5113453;28;20834;-67
2020/12/01 01:31:27;;;;;;;11.70;9.32;;;4.70;1.00;;;;;;5113494;28;20405;-66
2020/12/01 01:33:53;;;;;;;12.50;9.80;;;4.70;1.00;;;;;;5113606;28;20404;-67
2020/12/01 01:36:20;;;;;;;13.93;11.10;;;4.80;99.90;;;;;;5113473;28;20453;-66
2020/12/01 01:38:47;;;;;;;13.10;10.82;;;4.80;1.00;;;;;;5113197;28;20420;-67
2020/12/01 01:41:13;;;;;;;14.32;11.23;;;4.80;1.00;;;;;;5113452;28;20465;-66
2020/12/01 01:43:39;;;;;;;14.32;11.43;;;4.80;1.00;;;;;;5113767;28;20997;-67
2020/12/01 01:46:32;;;;;;;17.55;12.80;;;4.90;1.00;;;;;;5113210;28;20412;-66
2020/12/01 01:48:59;;;;;;;18.10;12.82;;;4.80;1.00;;;;;;5115939;28;20404;-67
2020/12/01 01:51:25;;;;;;;17.95;13.30;;;4.90;1.00;;;;;;5115391;28;20457;-66
2020/12/01 01:53:55;;;;;;;17.00;12.43;;;4.90;1.00;;;;;;5113424;28;20412;-66
2020/12/01 01:56:26;;;;;;;17.50;14.00;;;4.80;1.00;;;;;;5113160;28;20404;-66
2020/12/01 01:58:53;;;;;;;19.38;14.35;;;4.90;1.00;;;;;;5113149;28;20802;-67
2020/12/01 02:01:21;;;;;;;18.67;13.73;;;4.80;51.90;;;;;;5113323;28;20469;-66
2020/12/01 02:03:50;;;;;;;18.52;13.80;;;4.90;99.90;;;;;;5112982;28;20457;-66
2020/12/01 02:06:19;;;;;;;16.15;12.80;;;4.90;1.00;;;;;;5113520;28;20404;-66
2020/12/01 02:08:47;;;;;;;18.50;13.90;;;4.90;31.50;;;;;;5112809;28;20400;-66
2020/12/01 02:11:15;;;;;;;15.70;12.30;;;4.90;99.90;;;;;;5113209;28;21036;-66
2020/12/01 02:13:47;;;;;;;16.27;12.88;;;4.90;1.00;;;;;;5113300;28;20396;-66
2020/12/01 02:16:13;;;;;;;16.30;12.48;;;4.90;1.00;;;;;;5112997;28;20400;-66
2020/12/01 02:18:39;;;;;;;15.23;12.65;;;4.90;1.00;;;;;;5112705;28;20420;-66
2020/12/01 02:21:26;;;;;;;14.07;11.30;;;4.90;1.00;;;;;;5112574;28;20409;-67
2020/12/01 02:23:53;;;;;;;15.02;11.82;;;4.90;1.00;;;;;;5112673;28;20400;-66
2020/12/01 02:26:20;;;;;;;13.90;11.00;;;4.90;1.00;;;;;;5112578;28;20409;-66
2020/12/01 02:28:46;;;;;;;14.07;10.70;;;4.90;99.90;;;;;;5112613;28;20461;-66
2020/12/01 02:31:12;;;;;;;12.23;10.45;;;4.90;1.00;;;;;;5112769;28;20404;-66
2020/12/01 02:33:38;;;;;;;13.57;10.70;;;4.90;99.90;;;;;;5112759;28;20465;-66
2020/12/01 02:36:04;;;;;;;13.27;9.90;;;4.90;99.90;;;;;;5112241;28;20492;-66
2020/12/01 02:38:30;;;;;;;12.80;10.27;;;4.90;99.90;;;;;;5112623;28;20870;-66
2020/12/01 02:40:56;;;;;;;13.40;10.52;;;4.90;99.90;;;;;;5112256;28;20460;-66
2020/12/01 02:43:23;;;;;;;13.20;10.40;;;4.90;99.90;;;;;;5112211;28;20469;-66
2020/12/01 02:45:49;;;;;;;13.85;10.07;;;4.90;99.90;;;;;;5112232;28;20408;-66
2020/12/01 02:48:16;;;;;;;11.88;9.52;;;4.90;99.90;;;;;;5111501;28;20400;-66
2020/12/01 02:50:42;;;;;;;11.32;8.85;;;4.90;99.90;;;;;;5112009;28;20400;-66
2020/12/01 02:53:08;;;;;;;12.05;9.15;;;4.90;99.90;;;;;;5112218;28;20457;-66
2020/12/01 02:55:34;;;;;;;10.20;8.73;;;4.90;39.10;;;;;;5112569;28;20453;-67
2020/12/01 02:58:00;;;;;;;22.63;11.57;;;4.90;89.00;;;;;;5112174;28;20396;-66
2020/12/01 03:00:27;;;;;;;13.20;10.13;;;4.90;99.90;;;;;;5112069;28;20892;-66
2020/12/01 03:02:53;;;;;;;12.90;10.23;;;4.90;78.50;;;;;;5111734;28;20447;-66
2020/12/01 03:05:19;;;;;;;13.23;10.50;;;4.90;94.10;;;;;;5111616;28;20445;-67
2020/12/01 03:07:45;;;;;;;12.63;10.00;;;4.90;68.00;;;;;;5111804;28;20453;-66
2020/12/01 03:10:12;;;;;;;15.25;10.60;;;4.90;99.90;;;;;;5111776;28;20401;-66
2020/12/01 03:12:38;;;;;;;13.05;10.30;;;4.90;89.20;;;;;;5111696;28;20404;-66
2020/12/01 03:15:09;;;;;;;14.32;10.85;;;4.90;98.10;;;;;;5111737;28;20854;-66
2020/12/01 03:17:36;;;;;;;12.65;10.15;;;4.80;13.40;;;;;;5111880;28;20419;-66
2020/12/01 03:20:03;;;;;;;13.23;10.70;;;4.90;99.90;;;;;;5111746;28;20496;-66
2020/12/01 03:22:29;;;;;;;14.05;10.98;;;4.80;99.90;;;;;;5111825;28;20400;-67
2020/12/01 03:24:55;;;;;;;13.70;10.10;;;4.90;1.00;;;;;;5111584;28;20404;-66
2020/12/01 03:27:21;;;;;;;14.52;11.10;;;4.90;1.00;;;;;;5111444;28;20400;-66
2020/12/01 03:29:47;;;;;;;14.02;10.40;;;4.90;99.90;;;;;;5111412;28;20408;-66
2020/12/01 03:32:14;;;;;;;15.25;11.60;;;4.90;1.00;;;;;;5111340;28;20407;-66
2020/12/01 03:34:41;;;;;;;13.65;10.90;;;5.00;1.00;;;;;;5111545;28;20415;-66
2020/12/01 03:37:07;;;;;;;13.60;11.10;;;5.00;1.00;;;;;;5112276;28;20454;-66
2020/12/01 03:39:33;;;;;;;13.40;11.10;;;5.00;99.90;;;;;;5111532;28;20490;-66
2020/12/01 03:41:59;;;;;;;14.07;11.27;;;5.00;99.90;;;;;;5111684;28;20434;-66
2020/12/01 03:44:29;;;;;;;14.13;11.00;;;4.90;99.90;;;;;;5111694;28;20449;-66
2020/12/01 03:46:55;;;;;;;13.43;10.38;;;5.00;99.90;;;;;;5111153;28;20443;-67
2020/12/01 03:49:22;;;;;;;14.68;11.55;;;5.00;99.90;;;;;;5111440;28;20388;-66
2020/12/01 03:51:49;;;;;;;17.13;11.50;;;5.00;99.90;;;;;;5111566;28;20412;-66
2020/12/01 03:54:16;;;;;;;14.95;11.52;;;4.90;99.90;;;;;;5111406;28;20404;-66
2020/12/01 03:56:42;;;;;;;14.80;11.68;;;5.00;99.90;;;;;;5111360;28;20457;-66
2020/12/01 03:59:08;;;;;;;15.85;11.98;;;5.00;99.90;;;;;;5112146;28;20424;-66
2020/12/01 04:01:34;;;;;;;16.60;12.65;;;4.90;99.90;;;;;;5115649;28;20404;-66
2020/12/01 04:04:00;;;;;;;14.60;11.32;;;5.00;99.90;;;;;;5115383;28;20412;-66
2020/12/01 04:06:26;;;;;;;15.63;12.32;;;5.00;99.90;;;;;;5115232;28;20953;-66
2020/12/01 04:08:53;;;;;;;15.75;11.73;;;5.10;99.90;;;;;;5115592;28;20400;-66
2020/12/01 04:11:19;;;;;;;15.68;11.80;;;5.10;79.50;;;;;;5115290;28;20458;-66
2020/12/01 04:13:45;;;;;;;15.00;11.82;;;5.10;13.10;;;;;;5115115;28;20403;-66
2020/12/01 04:16:13;;;;;;;15.30;12.60;;;5.10;1.50;;;;;;5115031;28;20408;-66
2020/12/01 04:18:39;;;;;;;15.20;12.48;;;5.10;8.50;;;;;;5115111;28;20477;-66
2020/12/01 04:21:06;;;;;;;14.95;12.32;;;5.10;1.00;;;;;;5115143;28;20400;-66
2020/12/01 04:23:32;;;;;;;17.67;12.88;;;5.10;1.00;;;;;;5115393;28;20416;-66
2020/12/01 04:25:59;;;;;;;15.33;12.63;;;5.10;32.20;;;;;;5115123;28;20476;-67
2020/12/01 04:28:25;;;;;;;17.30;13.07;;;5.10;1.00;;;;;;5117411;28;20404;-66
2020/12/01 04:30:51;;;;;;;16.75;13.07;;;5.10;1.00;;;;;;5115903;28;20841;-67
2020/12/01 04:33:17;;;;;;;18.98;13.50;;;5.00;1.00;;;;;;5115981;28;20400;-67
2020/12/01 04:35:43;;;;;;;16.88;13.48;;;5.00;86.40;;;;;;5115693;28;20426;-66
2020/12/01 04:38:10;;;;;;;16.90;13.60;;;5.00;99.90;;;;;;5114492;28;20469;-66
2020/12/01 04:40:39;;;;;;;17.70;13.87;;;5.00;55.60;;;;;;5114663;28;20768;-66
2020/12/01 04:43:13;;;;;;;19.30;14.75;;;5.00;1.00;;;;;;5114623;28;20457;-66
2020/12/01 04:45:41;;;;;;;18.43;14.10;;;5.00;99.90;;;;;;5115240;28;20453;-66
2020/12/01 04:48:13;;;;;;;17.95;14.02;;;5.10;99.90;;;;;;5115220;28;20404;-66
2020/12/01 04:50:43;;;;;;;17.40;13.82;;;5.10;99.90;;;;;;5116648;28;20453;-66
2020/12/01 04:53:43;;;;;;;18.55;14.48;;;5.10;99.90;;;;;;5118047;28;20412;-66
2020/12/01 04:56:21;;;;;;;16.05;13.10;;;5.20;1.00;;;;;;5114682;28;20457;-67
2020/12/01 04:59:18;;;;;;;16.55;13.48;;;5.30;99.90;;;;;;5114982;28;20416;-66
2020/12/01 05:02:19;;;;;;;19.38;14.57;;;5.30;99.90;;;;;;5114451;28;20412;-66
2020/12/01 05:04:50;;;;;;;20.00;14.45;;;5.30;99.90;;;;;;5114758;28;20468;-67
2020/12/01 05:07:29;;;;;;;17.33;14.00;;;5.30;99.90;;;;;;5114973;28;20435;-66
2020/12/01 05:10:02;;;;;;;16.45;13.32;;;5.30;89.00;;;;;;5114104;28;20400;-66
2020/12/01 05:12:33;;;;;;;18.75;13.98;;;5.40;1.00;;;;;;5114221;28;20830;-66
2020/12/01 05:15:12;;;;;;;17.13;13.18;;;5.40;1.00;;;;;;5114580;28;20444;-66
2020/12/01 05:18:04;;;;;;;17.45;12.70;;;5.50;1.00;;;;;;5113859;28;20399;-67
2020/12/01 05:20:30;;;;;;;17.30;13.50;;;5.50;1.00;;;;;;5113701;28;20466;-66
2020/12/01 05:22:59;;;;;;;16.75;13.85;;;5.50;1.00;;;;;;5114077;28;20430;-66
2020/12/01 05:25:27;;;;;;;17.05;14.00;;;5.50;99.90;;;;;;5113836;28;20400;-67
2020/12/01 05:28:05;;;;;;;17.23;13.45;;;5.50;1.00;;;;;;5111914;28;20413;-66
2020/12/01 05:30:32;;;;;;;16.40;13.20;;;5.50;1.00;;;;;;5113396;28;20500;-69
2020/12/01 05:33:04;;;;;;;16.35;12.75;;;5.60;99.90;;;;;;5113481;28;20465;-69
2020/12/01 05:35:32;;;;;;;17.70;12.93;;;5.60;99.90;;;;;;5113886;28;20408;-69
2020/12/01 05:38:02;;;;;;;16.15;12.10;;;5.60;99.90;;;;;;5113921;28;20416;-69
2020/12/01 05:40:30;;;;;;;17.85;13.60;;;5.60;99.90;;;;;;5114553;28;20420;-69
2020/12/01 05:42:57;;;;;;;18.40;13.70;;;5.60;99.90;;;;;;5115152;28;20414;-69
2020/12/01 05:45:27;;;;;;;20.00;13.90;;;5.60;99.90;;;;;;5114427;28;20901;-69
2020/12/01 05:48:03;;;;;;;16.20;13.17;;;5.70;99.90;;;;;;5113368;28;20542;-69
2020/12/01 05:50:32;;;;;;;17.70;13.63;;;5.70;99.90;;;;;;5113455;28;20405;-69
2020/12/01 05:53:05;;;;;;;17.50;13.60;;;5.70;99.90;;;;;;5113872;28;20934;-69
2020/12/01 05:55:32;;;;;;;20.85;14.18;;;5.70;99.90;;;;;;5113252;28;20469;-69
2020/12/01 05:58:03;;;;;;;17.10;13.10;;;5.70;99.90;;;;;;5112969;28;20757;-69
2020/12/01 06:00:30;;;;;;;20.08;13.73;;;5.70;99.90;;;;;;5112890;28;20904;-69
2020/12/01 06:03:14;;;;;;;19.45;14.68;;;5.60;99.90;;;;;;5112999;28;20469;-69
2020/12/01 06:05:41;;;;;;;18.40;14.32;;;5.60;99.90;;;;;;5112996;28;20404;-69
2020/12/01 06:08:18;;;;;;;21.00;15.40;;;5.60;99.90;;;;;;5112888;28;20529;-69
2020/12/01 06:10:49;;;;;;;21.08;15.60;;;5.60;99.90;;;;;;5113111;28;20409;-69
2020/12/01 06:13:31;;;;;;;21.10;15.40;;;5.60;1.00;;;;;;5112922;28;20408;-69
2020/12/01 06:16:15;;;;;;;21.60;14.38;;;5.70;99.90;;;;;;5113215;28;20412;-69
2020/12/01 06:18:50;;;;;;;24.83;15.60;;;5.60;99.90;;;;;;5112712;28;20437;-69
2020/12/01 06:21:27;;;;;;;25.35;16.80;;;5.50;99.90;;;;;;5113628;28;20412;-69
2020/12/01 06:24:19;;;;;;;23.00;17.17;;;5.50;1.00;;;;;;5112265;28;20957;-69
2020/12/01 06:27:17;;;;;;;28.75;17.35;;;5.50;22.90;;;;;;5112650;28;20453;-68
2020/12/01 06:30:16;;;;;;;31.65;18.85;;;5.60;99.90;;;;;;5112739;28;20409;-70
2020/12/01 06:33:29;;;;;;;31.25;18.65;;;5.70;1.00;;;;;;5041446;28;20404;-68
2020/12/01 06:36:32;;;;;;;29.20;18.13;;;5.70;1.00;;;;;;5112668;28;20396;-69
2020/12/01 06:39:10;;;;;;;35.00;19.60;;;5.70;29.60;;;;;;5112029;28;20984;-68
2020/12/01 06:41:41;;;;;;;30.70;19.57;;;5.80;1.00;;;;;;5112286;28;20396;-68
2020/12/01 06:44:14;;;;;;;33.90;19.40;;;5.80;1.00;;;;;;5109988;28;20460;-68
2020/12/01 06:46:46;;;;;;;38.08;21.65;;;5.80;1.00;;;;;;5112327;28;20413;-68
2020/12/01 06:49:16;;;;;;;33.58;20.98;;;5.70;3.50;;;;;;5112638;28;20401;-68
2020/12/01 06:51:47;;;;;;;36.85;21.95;;;5.70;99.90;;;;;;5112446;28;20407;-68
2020/12/01 06:54:15;;;;;;;37.70;20.65;;;5.70;99.90;;;;;;5111932;28;20488;-68
2020/12/01 06:56:42;;;;;;;43.42;23.20;;;5.70;1.00;;;;;;5112486;28;20477;-68
2020/12/01 06:59:10;;;;;;;38.40;20.77;;;5.70;1.00;;;;;;5112106;28;20419;-67
2020/12/01 07:01:38;;;;;;;43.20;21.53;;;5.80;1.00;;;;;;5112241;28;20453;-67
2020/12/01 07:04:26;;;;;;;38.55;21.65;;;5.80;47.60;;;;;;5111967;28;20408;-68
2020/12/01 07:09:59;;;;;;;38.88;19.83;;;5.80;99.90;;;;;;5110747;28;20414;-69
2020/12/01 07:16:38;;;;;;;45.72;23.67;;;5.90;1.00;;;;;;5110533;28;20412;-70
2020/12/01 07:19:14;;;;;;;45.90;24.90;;;6.60;83.90;;;;;;5113102;28;20905;-67
2020/12/01 07:21:48;;;;;;;54.88;25.65;;;5.60;99.90;;;;;;5112375;28;20412;-68
2020/12/01 07:24:22;;;;;;;48.60;24.98;;;5.90;99.90;;;;;;5111662;28;20411;-68
2020/12/01 07:27:04;;;;;;;48.55;26.85;;;5.80;99.90;;;;;;5112180;28;20422;-68
2020/12/01 07:29:50;;;;;;;48.13;25.23;;;5.70;99.90;;;;;;5111918;28;20403;-66
2020/12/01 07:32:21;;;;;;;56.03;26.83;;;6.00;99.90;;;;;;5112010;28;20779;-69
2020/12/01 07:34:49;;;;;;;51.53;25.52;;;7.30;99.90;;;;;;5111531;28;20433;-67
2020/12/01 07:37:41;;;;;;;51.60;25.88;;;6.00;1.00;;;;;;5111546;28;20404;-67
2020/12/01 07:40:08;;;;;;;52.85;27.45;;;6.00;99.90;;;;;;5111585;28;21124;-66
2020/12/01 07:42:36;;;;;;;59.70;27.08;;;6.00;1.00;;;;;;5112250;28;20962;-67
2020/12/01 07:45:13;;;;;;;54.70;28.67;;;6.00;1.00;;;;;;5113064;28;20466;-68
2020/12/01 07:47:39;;;;;;;56.78;27.90;;;6.10;99.90;;;;;;5112091;28;20425;-69
2020/12/01 07:50:13;;;;;;;55.05;26.55;;;6.00;99.90;;;;;;5112156;28;20431;-68
2020/12/01 07:52:42;;;;;;;54.08;27.25;;;5.90;99.90;;;;;;5113462;28;20425;-67
2020/12/01 07:55:19;;;;;;;44.70;24.67;;;6.00;99.90;;;;;;5111920;28;20404;-67
2020/12/01 07:57:56;;;;;;;49.65;25.85;;;6.10;1.00;;;;;;5111633;28;20407;-68
2020/12/01 08:00:23;;;;;;;54.03;26.63;;;6.10;99.90;;;;;;5111920;28;20520;-68
2020/12/01 08:02:49;;;;;;;53.75;25.85;;;6.20;99.90;;;;;;5111545;28;20458;-67
2020/12/01 08:05:15;;;;;;;50.20;26.63;;;6.10;99.90;;;;;;5111756;28;20400;-68
2020/12/01 08:07:41;;;;;;;54.47;26.42;;;6.20;99.90;;;;;;5112406;28;20411;-68
2020/12/01 08:10:10;;;;;;;48.00;26.10;;;6.20;99.90;;;;;;5114257;28;20404;-67
2020/12/01 08:12:40;;;;;;;58.55;27.00;;;6.30;99.90;;;;;;5119373;28;20405;-68
2020/12/01 08:15:07;;;;;;;53.85;27.05;;;6.30;99.90;;;;;;5111523;28;20419;-67
2020/12/01 08:17:38;;;;;;;54.78;27.33;;;6.30;1.00;;;;;;5111515;28;20402;-67
2020/12/01 08:20:06;;;;;;;59.80;27.93;;;6.40;1.00;;;;;;5111433;28;20916;-67
2020/12/01 08:22:38;;;;;;;56.63;26.95;;;6.30;99.90;;;;;;5112727;28;20466;-67
2020/12/01 08:25:07;;;;;;;54.90;27.77;;;6.30;99.90;;;;;;5111568;28;20406;-67
2020/12/01 08:27:40;;;;;;;51.75;26.73;;;6.40;1.00;;;;;;5111468;28;20766;-67
2020/12/01 08:30:11;;;;;;;55.75;26.13;;;6.40;1.00;;;;;;5111326;28;20443;-66
2020/12/01 08:32:42;;;;;;;50.05;26.40;;;6.40;99.90;;;;;;5111544;28;20430;-68
2020/12/01 08:35:20;;;;;;;54.55;25.45;;;6.50;1.00;;;;;;5111687;28;20478;-70
2020/12/01 08:38:02;;;;;;;51.47;25.50;;;6.50;1.00;;;;;;5091553;28;20423;-70
2020/12/01 08:40:36;;;;;;;53.50;25.60;;;6.50;1.00;;;;;;5092156;28;20422;-69
2020/12/01 08:43:16;;;;;;;51.73;25.67;;;6.70;1.00;;;;;;5091737;28;20496;-68
2020/12/01 08:45:55;;;;;;;52.63;25.92;;;5.80;1.00;;;;;;5092666;28;20407;-69
2020/12/01 08:48:29;;;;;;;55.95;25.83;;;8.00;99.90;;;;;;5095080;28;20450;-66
2020/12/01 08:51:13;;;;;;;53.47;26.30;;;6.60;99.90;;;;;;5095338;28;20585;-67
2020/12/01 08:53:45;;;;;;;59.45;26.75;;;6.60;99.90;;;;;;5094114;28;20849;-67
2020/12/01 08:56:20;;;;;;;50.15;26.98;;;6.60;1.00;;;;;;5093922;28;20468;-67
2020/12/01 08:58:51;;;;;;;60.97;28.83;;;6.60;1.00;;;;;;5094302;28;20827;-69
2020/12/01 09:01:18;;;;;;;53.00;27.40;;;6.50;1.00;;;;;;5094354;28;20408;-70
2020/12/01 09:03:55;;;;;;;55.35;27.15;;;6.50;1.00;;;;;;5095584;28;20404;-70
2020/12/01 09:06:23;;;;;;;55.33;27.35;;;6.50;88.90;;;;;;5096858;28;20467;-68
2020/12/01 09:08:56;;;;;;;58.65;28.17;;;6.50;1.00;;;;;;5095474;28;20470;-68
2020/12/01 09:14:49;;;;;;;57.50;27.33;;;6.70;84.60;;;;;;5050949;28;20404;-66
2020/12/01 09:17:23;;;;;;;53.67;26.80;;;6.90;8.70;;;;;;5051497;28;20430;-66
2020/12/01 09:20:01;;;;;;;51.57;26.10;;;6.90;1.00;;;;;;5079208;28;20925;-66
2020/12/01 09:22:31;;;;;;;49.72;25.90;;;6.90;99.90;;;;;;5094149;28;20450;-66
2020/12/01 09:25:20;;;;;;;47.42;23.80;;;6.90;99.90;;;;;;5093509;28;20395;-65
2020/12/01 09:27:48;;;;;;;45.30;22.93;;;6.90;99.90;;;;;;5094136;28;20916;-67
2020/12/01 09:30:30;;;;;;;45.72;23.77;;;6.90;76.00;;;;;;5095683;28;20413;-67
2020/12/01 09:32:58;;;;;;;41.83;23.27;;;7.00;99.90;;;;;;5102205;28;20788;-67
2020/12/01 09:35:25;;;;;;;45.80;24.40;;;6.90;1.00;;;;;;5107299;28;20405;-69
2020/12/01 09:37:52;;;;;;;46.17;22.92;;;7.20;99.90;;;;;;5109352;28;20439;-67
2020/12/01 09:40:18;;;;;;;49.22;24.25;;;6.50;1.00;;;;;;5096956;28;20425;-68
2020/12/01 09:42:48;;;;;;;49.50;23.90;;;6.30;1.00;;;;;;5093631;28;20894;-69
2020/12/01 09:45:20;;;;;;;38.65;24.13;;;6.50;99.90;;;;;;5093326;28;20421;-67
2020/12/01 09:47:50;;;;;;;39.58;21.10;;;6.60;99.90;;;;;;5094420;28;20444;-67
2020/12/01 09:50:19;;;;;;;31.90;19.15;;;6.50;85.60;;;;;;5101277;28;20409;-67
2020/12/01 09:53:01;;;;;;;27.77;18.27;;;6.80;99.90;;;;;;5106028;28;20755;-67
2020/12/01 09:55:48;;;;;;;30.65;17.27;;;6.90;99.90;;;;;;5106285;28;20451;-69
2020/12/01 09:58:28;;;;;;;28.73;17.83;;;6.90;54.70;;;;;;5098147;28;20455;-65
2020/12/01 10:09:12;;;;;;;22.27;15.70;;;7.00;99.90;;;;;;5093810;28;20388;-66
2020/12/01 10:25:48;;;;;;;44.67;27.67;;;7.30;65.60;;;;;;5092638;28;20471;-67
2020/12/01 10:36:29;;;;;;;50.50;28.92;;;7.80;59.60;;;;;;5092847;28;20497;-68
2020/12/01 10:38:57;;;;;;;18.90;13.18;;;7.90;3.90;;;;;;5093548;28;20436;-66
2020/12/01 10:41:29;;;;;;;18.17;11.35;;;7.90;1.00;;;;;;5095439;28;20416;-66
2020/12/01 10:43:55;;;;;;;14.52;10.23;;;7.70;99.90;;;;;;5092527;28;20414;-67
2020/12/01 10:46:21;;;;;;;15.15;11.85;;;7.50;99.90;;;;;;5093174;28;20406;-67
2020/12/01 10:48:47;;;;;;;18.08;12.40;;;7.50;99.90;;;;;;5092492;28;20410;-65
2020/12/01 10:51:14;;;;;;;17.23;12.33;;;7.40;99.90;;;;;;5092344;28;20418;-67
2020/12/01 10:53:40;;;;;;;16.90;11.85;;;7.50;1.00;;;;;;5092529;28;20416;-67
2020/12/01 10:56:06;;;;;;;15.00;10.93;;;7.60;1.00;;;;;;5092433;28;20413;-66
2020/12/01 10:58:33;;;;;;;14.77;10.23;;;7.60;99.90;;;;;;5093662;28;20909;-67
2020/12/01 11:01:01;;;;;;;15.02;10.70;;;7.60;99.90;;;;;;5097091;28;20844;-65
2020/12/01 11:03:28;;;;;;;18.15;11.45;;;7.50;99.90;;;;;;5091708;28;20409;-65
2020/12/01 11:05:54;;;;;;;14.80;10.90;;;7.50;1.00;;;;;;5092139;28;20410;-67
2020/12/01 11:08:20;;;;;;;14.40;10.67;;;7.50;1.00;;;;;;5091637;28;20954;-67
2020/12/01 11:10:47;;;;;;;14.20;10.93;;;7.40;24.00;;;;;;5091859;28;20882;-67
2020/12/01 11:13:14;;;;;;;16.25;10.73;;;7.50;99.90;;;;;;5091495;28;20500;-67
2020/12/01 11:15:41;;;;;;;15.88;10.57;;;7.10;99.90;;;;;;5091711;28;20402;-67
2020/12/01 11:18:08;;;;;;;16.97;11.30;;;7.40;99.90;;;;;;5091881;28;20471;-67
2020/12/01 11:20:35;;;;;;;16.38;10.90;;;7.50;1.00;;;;;;5090715;28;20941;-66
2020/12/01 11:23:01;;;;;;;14.13;10.70;;;7.40;1.00;;;;;;5091560;28;20925;-66
2020/12/01 11:25:27;;;;;;;14.95;10.05;;;7.50;98.90;;;;;;5092244;28;20409;-67
2020/12/01 11:27:53;;;;;;;12.55;9.82;;;7.60;1.00;;;;;;5091860;28;20979;-67
2020/12/01 11:30:22;;;;;;;12.93;10.18;;;7.60;1.00;;;;;;5091471;28;20406;-67
2020/12/01 11:32:49;;;;;;;14.77;10.93;;;7.60;99.90;;;;;;5091584;28;20448;-66
2020/12/01 11:35:17;;;;;;;12.70;10.00;;;7.70;1.00;;;;;;5091462;28;20406;-65
2020/12/01 11:37:44;;;;;;;11.43;9.43;;;7.90;1.00;;;;;;5091573;28;20870;-67
2020/12/01 11:40:11;;;;;;;13.07;10.40;;;7.90;99.90;;;;;;5091880;28;20952;-66
2020/12/01 11:42:37;;;;;;;12.33;9.97;;;7.90;99.90;;;;;;5091329;28;20409;-65
2020/12/01 11:45:04;;;;;;;16.20;10.13;;;7.90;99.60;;;;;;5091186;28;20414;-68
2020/12/01 11:47:30;;;;;;;13.65;10.32;;;7.80;99.90;;;;;;5091511;28;20459;-67
2020/12/01 11:49:57;;;;;;;11.13;9.70;;;10.40;99.90;;;;;;5091252;28;20417;-68
2020/12/01 11:52:23;;;;;;;10.45;9.25;;;8.00;1.00;;;;;;5091250;28;20414;-67
2020/12/01 11:54:49;;;;;;;12.90;10.75;;;7.90;1.00;;;;;;5091274;28;20480;-68
2020/12/01 11:57:16;;;;;;;14.80;11.43;;;7.60;1.00;;;;;;5091780;28;20805;-67
2020/12/01 11:59:42;;;;;;;14.90;11.60;;;7.70;99.90;;;;;;5091429;28;20479;-67
2020/12/01 12:02:08;;;;;;;14.45;11.65;;;7.70;1.00;;;;;;5091724;28;20786;-68
2020/12/01 12:04:34;;;;;;;15.15;12.68;;;7.70;1.00;;;;;;5091388;28;20410;-67
2020/12/01 12:07:01;;;;;;;16.17;12.80;;;7.80;99.90;;;;;;5091214;28;20902;-66
2020/12/01 12:09:27;;;;;;;15.10;13.18;;;7.80;92.70;;;;;;5091657;28;20402;-66
2020/12/01 12:11:53;;;;;;;17.52;13.15;;;8.00;99.90;;;;;;5091515;28;20459;-66
2020/12/01 12:14:20;;;;;;;17.10;13.30;;;7.90;1.00;;;;;;5091293;28;20894;-66
2020/12/01 12:16:46;;;;;;;18.13;14.70;;;7.80;1.00;;;;;;5091355;28;20410;-66
2020/12/01 12:19:12;;;;;;;20.95;15.38;;;7.60;1.00;;;;;;5090945;28;20471;-67
2020/12/01 12:21:38;;;;;;;19.42;14.43;;;7.60;1.00;;;;;;5094441;28;20871;-67
2020/12/01 12:24:06;;;;;;;20.77;15.18;;;7.60;99.90;;;;;;5094896;28;20406;-68
2020/12/01 12:26:32;;;;;;;20.42;14.10;;;7.70;99.90;;;;;;5095505;28;20410;-68
2020/12/01 12:28:58;;;;;;;21.65;15.63;;;7.70;99.90;;;;;;5095056;28;20413;-69
2020/12/01 12:31:24;;;;;;;21.95;15.15;;;7.70;99.90;;;;;;5094671;28;20405;-67
2020/12/01 12:33:50;;;;;;;21.13;15.10;;;7.60;1.00;;;;;;5094743;28;20459;-68
2020/12/01 12:36:17;;;;;;;21.23;16.25;;;7.70;1.00;;;;;;5094823;28;20808;-69
2020/12/01 12:38:44;;;;;;;21.73;15.07;;;10.00;99.90;;;;;;5095122;28;20471;-69
2020/12/01 12:41:11;;;;;;;18.25;15.00;;;10.20;1.00;;;;;;5095011;28;20955;-68
2020/12/01 12:43:37;;;;;;;17.35;14.20;;;8.00;99.90;;;;;;5094498;28;20409;-68
2020/12/01 12:46:04;;;;;;;17.20;13.95;;;8.20;99.90;;;;;;5094182;28;20455;-67
2020/12/01 12:48:30;;;;;;;15.75;12.90;;;9.60;56.60;;;;;;5094804;28;20409;-66
2020/12/01 12:50:57;;;;;;;16.15;13.75;;;8.40;99.90;;;;;;5095470;28;20459;-66
2020/12/01 12:53:24;;;;;;;18.17;14.02;;;8.40;76.80;;;;;;5095994;28;20413;-66
2020/12/01 12:55:50;;;;;;;17.50;13.95;;;8.40;99.90;;;;;;5095534;28;20826;-65
2020/12/01 12:58:17;;;;;;;19.10;15.05;;;8.50;99.90;;;;;;5094201;28;20406;-66
2020/12/01 13:00:44;;;;;;;17.63;14.30;;;8.30;99.90;;;;;;5093847;28;20417;-66
2020/12/01 13:03:11;;;;;;;16.73;13.77;;;8.40;62.40;;;;;;5093630;28;20410;-66
2020/12/01 13:05:37;;;;;;;18.58;13.85;;;8.50;12.40;;;;;;5094361;28;20511;-64
2020/12/01 13:08:05;;;;;;;17.00;14.30;;;8.40;1.00;;;;;;5093839;28;20406;-64
2020/12/01 13:10:32;;;;;;;17.70;14.60;;;8.40;1.00;;;;;;5094154;28;20410;-68
2020/12/01 13:12:59;;;;;;;17.58;14.13;;;8.40;1.00;;;;;;5093617;28;20414;-66
2020/12/01 13:15:27;;;;;;;16.70;14.00;;;8.50;1.00;;;;;;5093654;28;20409;-65
2020/12/01 13:17:53;;;;;;;17.17;14.20;;;8.40;1.00;;;;;;5094192;28;20414;-66
2020/12/01 13:20:22;;;;;;;15.70;13.63;;;8.50;1.00;;;;;;5093984;28;20471;-66
2020/12/01 13:22:49;;;;;;;15.73;13.65;;;8.60;1.00;;;;;;5094960;28;20410;-64
2020/12/01 13:25:15;;;;;;;14.73;12.95;;;8.60;1.00;;;;;;5093914;28;20413;-66
2020/12/01 13:27:41;;;;;;;15.50;13.80;;;8.60;1.00;;;;;;5095020;28;20413;-66
2020/12/01 13:30:10;;;;;;;17.13;13.00;;;8.60;1.00;;;;;;5097055;28;20410;-68
2020/12/01 13:32:37;;;;;;;15.45;12.75;;;8.70;1.00;;;;;;5093215;28;20422;-66
2020/12/01 13:35:03;;;;;;;14.52;11.90;;;8.70;1.00;;;;;;5093813;28;20414;-67
2020/12/01 13:37:30;;;;;;;11.82;10.52;;;8.70;99.90;;;;;;5093630;28;20462;-67